Time;durP1;ratioP1;P1;durP2;ratioP2;P2;SDS_P1;SDS_P2;PMS_P1;PMS_P2;Temp;Humidity;BMP_temperature;BMP_pressure;BME280_temperature;BME280_humidity;BME280_pressure;Samples;Min_cycle;Max_cycle;Signal;HPM_P1;HPM_P2
2021/08/29 00:01:29;;;;;;;3.05;1.25;;;;;21.90;102031.00;;;;5010967;28;20208;-76
2021/08/29 00:03:57;;;;;;;3.05;1.00;;;;;21.90;102031.00;;;;5012056;28;20193;-76
2021/08/29 00:06:25;;;;;;;3.45;0.93;;;;;21.90;102030.00;;;;5011589;28;20203;-77
2021/08/29 00:08:52;;;;;;;2.05;1.10;;;;;21.90;102018.00;;;;5012259;28;20208;-76
2021/08/29 00:11:19;;;;;;;3.65;0.98;;;;;22.00;102019.00;;;;5011186;28;20678;-76
2021/08/29 00:13:46;;;;;;;2.15;1.20;;;;;22.00;102017.00;;;;5011759;28;20205;-76
2021/08/29 00:16:15;;;;;;;2.88;1.10;;;;;22.00;102018.00;;;;5012117;28;20578;-76
2021/08/29 00:18:43;;;;;;;2.60;1.40;;;;;22.00;102017.00;;;;5010738;28;20225;-76
2021/08/29 00:21:11;;;;;;;1.70;1.05;;;;;22.00;102015.00;;;;5010896;28;20193;-75
2021/08/29 00:23:38;;;;;;;3.30;1.08;;;;;22.00;102009.00;;;;5011653;28;20689;-75
2021/08/29 00:26:06;;;;;;;3.08;1.50;;;;;22.00;102013.00;;;;5011543;28;20193;-76
2021/08/29 00:28:33;;;;;;;3.15;1.15;;;;;22.00;102010.00;;;;5011749;28;20717;-76
2021/08/29 00:31:00;;;;;;;4.97;1.60;;;;;22.00;102002.00;;;;5011327;28;20209;-76
2021/08/29 00:33:27;;;;;;;1.42;0.98;;;;;22.00;102010.00;;;;5010848;28;20205;-76
2021/08/29 00:35:54;;;;;;;1.80;1.17;;;;;22.00;102002.00;;;;5011600;28;20208;-77
2021/08/29 00:38:23;;;;;;;1.60;1.17;;;;;22.00;101999.00;;;;5011619;28;20200;-76
2021/08/29 00:40:51;;;;;;;3.00;1.40;;;;;22.00;101999.00;;;;5011682;28;20201;-77
2021/08/29 00:43:19;;;;;;;4.10;1.60;;;;;22.00;101998.00;;;;5011490;28;20216;-76
2021/08/29 00:45:46;;;;;;;4.47;1.45;;;;;22.00;101994.00;;;;5010463;28;20674;-76
2021/08/29 00:48:14;;;;;;;4.15;1.63;;;;;22.00;101995.00;;;;5010470;28;20233;-76
2021/08/29 00:50:44;;;;;;;4.55;1.40;;;;;22.00;101996.00;;;;5011032;28;21083;-76
2021/08/29 00:53:12;;;;;;;5.80;1.60;;;;;22.10;101998.00;;;;5011048;28;20217;-76
2021/08/29 00:55:41;;;;;;;4.28;1.83;;;;;22.10;101999.00;;;;5011522;28;20212;-77
2021/08/29 00:58:08;;;;;;;2.38;1.40;;;;;22.10;101999.00;;;;5011383;28;20193;-76
2021/08/29 01:00:38;;;;;;;2.50;1.38;;;;;22.10;101999.00;;;;5010995;28;20213;-75
2021/08/29 01:03:05;;;;;;;3.92;1.88;;;;;22.10;101998.00;;;;5010569;28;20209;-76
2021/08/29 01:05:40;;;;;;;3.45;1.35;;;;;22.10;102005.00;;;;5010820;28;20671;-76
2021/08/29 01:08:14;;;;;;;2.25;1.45;;;;;22.10;102003.00;;;;5010467;28;20235;-76
2021/08/29 01:10:47;;;;;;;5.47;1.90;;;;;22.10;102002.00;;;;5010568;28;20260;-77
2021/08/29 01:13:19;;;;;;;3.33;1.67;;;;;22.10;101998.00;;;;5010782;28;20193;-76
2021/08/29 01:15:48;;;;;;;2.08;1.42;;;;;22.10;101997.00;;;;5010391;28;20220;-76
2021/08/29 01:18:20;;;;;;;2.03;1.30;;;;;22.10;101993.00;;;;5010644;28;20244;-77
2021/08/29 01:20:54;;;;;;;3.40;1.40;;;;;22.10;101995.00;;;;5009789;28;20213;-76
2021/08/29 01:23:23;;;;;;;3.67;1.67;;;;;22.10;101991.00;;;;5010549;28;20212;-77
2021/08/29 01:25:57;;;;;;;3.03;1.83;;;;;22.10;101994.00;;;;5010738;28;20204;-76
2021/08/29 01:28:32;;;;;;;3.40;1.73;;;;;22.10;101995.00;;;;5009914;28;20231;-76
2021/08/29 01:31:02;;;;;;;3.25;1.38;;;;;22.20;101988.00;;;;5011005;28;20200;-77
2021/08/29 01:33:29;;;;;;;3.00;1.40;;;;;22.20;101987.00;;;;5009853;28;20216;-76
2021/08/29 01:35:57;;;;;;;4.53;1.83;;;;;22.20;101994.00;;;;5010488;28;20205;-76
2021/08/29 01:38:24;;;;;;;3.85;1.50;;;;;22.20;101992.00;;;;5009656;28;20658;-76
2021/08/29 01:40:52;;;;;;;1.98;1.10;;;;;22.20;101984.00;;;;5010498;28;20204;-75
2021/08/29 01:43:19;;;;;;;3.38;2.15;;;;;22.20;101992.00;;;;5010334;28;20201;-76
2021/08/29 01:45:47;;;;;;;2.15;1.40;;;;;22.20;101990.00;;;;5009760;28;20408;-76
2021/08/29 01:48:16;;;;;;;6.70;1.80;;;;;22.20;101987.00;;;;5009714;28;20693;-76
2021/08/29 01:50:43;;;;;;;4.20;1.73;;;;;22.20;101984.00;;;;5009755;28;20212;-76
2021/08/29 01:53:11;;;;;;;3.03;1.83;;;;;22.20;101992.00;;;;5010162;28;20201;-76
2021/08/29 01:55:38;;;;;;;2.13;1.65;;;;;22.20;101995.00;;;;5009463;28;20197;-75
2021/08/29 01:58:06;;;;;;;5.20;1.42;;;;;22.20;101992.00;;;;5010172;28;20208;-77
2021/08/29 02:00:40;;;;;;;3.17;1.77;;;;;22.20;101996.00;;;;5009007;28;20209;-76
2021/08/29 02:03:08;;;;;;;3.95;1.50;;;;;22.20;101995.00;;;;5010384;28;20208;-76
2021/08/29 02:05:38;;;;;;;2.80;1.50;;;;;22.20;101992.00;;;;5009528;28;20201;-77
2021/08/29 02:08:08;;;;;;;4.25;1.70;;;;;22.20;101994.00;;;;5010392;28;20232;-77
2021/08/29 02:10:36;;;;;;;3.47;1.75;;;;;22.20;102001.00;;;;5009003;28;20209;-77
2021/08/29 02:13:08;;;;;;;2.10;1.50;;;;;22.20;101992.00;;;;5009867;28;20637;-78
2021/08/29 02:15:44;;;;;;;2.50;1.55;;;;;22.20;101993.00;;;;5009127;28;20376;-79
2021/08/29 02:18:13;;;;;;;2.78;1.35;;;;;22.20;101995.00;;;;5009505;28;20239;-78
2021/08/29 02:20:43;;;;;;;2.30;1.35;;;;;22.20;101990.00;;;;5008996;28;20204;-79
2021/08/29 02:23:10;;;;;;;3.42;1.83;;;;;22.20;101988.00;;;;5009507;28;20193;-78
2021/08/29 02:25:37;;;;;;;2.47;1.23;;;;;22.20;101990.00;;;;4989710;28;20205;-77
2021/08/29 02:28:06;;;;;;;3.78;1.58;;;;;22.20;101989.00;;;;4992667;28;20225;-78
2021/08/29 02:30:33;;;;;;;5.35;1.67;;;;;22.20;101994.00;;;;5008676;28;20200;-78
2021/08/29 02:33:01;;;;;;;5.00;1.38;;;;;22.20;101986.00;;;;5009801;28;20238;-78
2021/08/29 02:35:29;;;;;;;3.20;1.73;;;;;22.20;101984.00;;;;5008980;28;20213;-78
2021/08/29 02:37:59;;;;;;;2.92;1.40;;;;;22.20;101990.00;;;;5010086;28;20208;-77
2021/08/29 02:40:29;;;;;;;1.60;1.20;;;;;22.20;101990.00;;;;5008288;28;20204;-78
2021/08/29 02:42:57;;;;;;;3.08;1.73;;;;;22.20;101988.00;;;;5009743;28;20200;-78
2021/08/29 02:45:24;;;;;;;4.65;1.52;;;;;22.20;101992.00;;;;5009129;28;20214;-78
2021/08/29 02:47:52;;;;;;;3.35;1.60;;;;;22.20;101986.00;;;;5008242;28;20594;-77
2021/08/29 02:50:21;;;;;;;4.55;1.73;;;;;22.20;101988.00;;;;5009646;28;20205;-78
2021/08/29 02:52:48;;;;;;;2.75;1.95;;;;;22.20;101988.00;;;;5008775;28;20193;-77
2021/08/29 02:55:19;;;;;;;3.78;1.40;;;;;22.20;101980.00;;;;5009376;28;20197;-77
2021/08/29 02:57:49;;;;;;;3.22;1.50;;;;;22.20;101988.00;;;;5003182;28;20223;-77
2021/08/29 03:00:17;;;;;;;2.45;1.52;;;;;22.30;101983.00;;;;5009022;28;20201;-78
2021/08/29 03:02:44;;;;;;;2.92;2.05;;;;;22.30;101979.00;;;;5007714;28;20197;-78
2021/08/29 03:05:13;;;;;;;2.75;1.83;;;;;22.30;101977.00;;;;5008958;28;20201;-79
2021/08/29 03:07:40;;;;;;;1.95;1.13;;;;;22.30;101970.00;;;;5008770;28;20221;-78
2021/08/29 03:10:09;;;;;;;4.13;1.67;;;;;22.20;101971.00;;;;5009473;28;20197;-79
2021/08/29 03:12:38;;;;;;;3.42;1.45;;;;;22.20;101971.00;;;;5007759;28;20662;-78
2021/08/29 03:15:07;;;;;;;5.07;1.55;;;;;22.30;101982.00;;;;5009529;28;20197;-78
2021/08/29 03:17:34;;;;;;;3.08;1.58;;;;;22.30;101974.00;;;;5007686;28;20243;-78
2021/08/29 03:20:07;;;;;;;2.30;1.80;;;;;22.30;101973.00;;;;5008735;28;20201;-76
2021/08/29 03:22:34;;;;;;;3.50;1.60;;;;;22.30;101976.00;;;;5008267;28;20211;-76
2021/08/29 03:25:06;;;;;;;2.65;1.83;;;;;22.20;101971.00;;;;5008596;28;20209;-76
2021/08/29 03:27:34;;;;;;;3.78;1.33;;;;;22.20;101971.00;;;;5008756;28;20208;-76
2021/08/29 03:30:02;;;;;;;2.00;1.40;;;;;22.20;101977.00;;;;5009052;28;20212;-76
2021/08/29 03:32:30;;;;;;;4.50;1.95;;;;;22.20;101966.00;;;;5008535;28;20201;-76
2021/08/29 03:35:01;;;;;;;3.88;1.90;;;;;22.20;101967.00;;;;5009549;28;20207;-76
2021/08/29 03:37:29;;;;;;;2.42;1.77;;;;;22.30;101969.00;;;;5008445;28;20204;-77
2021/08/29 03:39:59;;;;;;;2.92;1.42;;;;;22.30;101972.00;;;;5009095;28;20205;-76
2021/08/29 03:42:27;;;;;;;4.05;1.60;;;;;22.30;101954.00;;;;5008839;28;20206;-76
2021/08/29 03:44:55;;;;;;;1.77;1.45;;;;;22.30;101954.00;;;;5008957;28;20336;-77
2021/08/29 03:47:24;;;;;;;3.63;2.00;;;;;22.20;101958.00;;;;5007775;28;20206;-77
2021/08/29 03:49:52;;;;;;;3.20;1.92;;;;;22.20;101946.00;;;;5009304;28;20228;-78
2021/08/29 03:52:19;;;;;;;2.28;1.23;;;;;22.20;101951.00;;;;5008033;28;20200;-77
2021/08/29 03:54:47;;;;;;;1.95;1.70;;;;;22.20;101951.00;;;;5008554;28;20200;-77
2021/08/29 03:57:15;;;;;;;6.68;1.38;;;;;22.20;101951.00;;;;5008402;28;20197;-77
2021/08/29 03:59:43;;;;;;;6.25;1.65;;;;;22.20;101946.00;;;;5007973;28;20208;-77
2021/08/29 04:02:11;;;;;;;3.55;1.58;;;;;22.20;101945.00;;;;5007452;28;20197;-78
2021/08/29 04:04:40;;;;;;;3.28;2.00;;;;;22.20;101937.00;;;;5008072;28;20204;-77
2021/08/29 04:07:09;;;;;;;4.97;1.70;;;;;22.20;101935.00;;;;5008493;28;20202;-77
2021/08/29 04:09:37;;;;;;;4.03;1.60;;;;;22.10;101934.00;;;;5007576;28;20272;-77
2021/08/29 04:12:06;;;;;;;3.67;1.75;;;;;22.10;101932.00;;;;5008127;28;20283;-77
2021/08/29 04:14:34;;;;;;;5.28;1.80;;;;;22.10;101934.00;;;;5009203;28;20208;-77
2021/08/29 04:17:02;;;;;;;4.00;1.38;;;;;22.10;101933.00;;;;5001818;28;20706;-76
2021/08/29 04:19:30;;;;;;;2.28;1.70;;;;;22.10;101937.00;;;;4997940;28;20285;-76
2021/08/29 04:21:59;;;;;;;2.75;1.33;;;;;22.10;101933.00;;;;4994365;28;20599;-76
2021/08/29 04:24:26;;;;;;;3.10;1.38;;;;;22.10;101932.00;;;;4998818;28;20214;-76
2021/08/29 04:26:54;;;;;;;3.92;1.40;;;;;22.10;101932.00;;;;5000441;28;20198;-76
2021/08/29 04:29:22;;;;;;;3.30;1.67;;;;;22.10;101935.00;;;;5004650;28;20223;-77
2021/08/29 04:31:51;;;;;;;2.63;1.77;;;;;22.10;101939.00;;;;4999923;28;20197;-76
2021/08/29 04:34:19;;;;;;;6.28;1.40;;;;;22.10;101935.00;;;;5002288;28;20194;-77
2021/08/29 04:36:46;;;;;;;4.15;1.30;;;;;22.10;101932.00;;;;5004739;28;20193;-77
2021/08/29 04:39:15;;;;;;;3.53;1.73;;;;;22.10;101929.00;;;;5006628;28;20262;-77
2021/08/29 04:41:42;;;;;;;4.55;1.95;;;;;22.10;101924.00;;;;5009397;28;20197;-77
2021/08/29 04:44:11;;;;;;;4.20;1.92;;;;;22.10;101928.00;;;;5010221;28;20197;-77
2021/08/29 04:46:39;;;;;;;1.60;1.15;;;;;22.10;101930.00;;;;5009900;28;20229;-77
2021/08/29 04:49:06;;;;;;;2.78;1.48;;;;;22.10;101930.00;;;;5010142;28;20217;-77
2021/08/29 04:51:34;;;;;;;3.28;1.05;;;;;22.10;101927.00;;;;5011369;28;20197;-76
2021/08/29 04:54:01;;;;;;;2.45;1.30;;;;;22.10;101929.00;;;;5011810;28;20192;-77
2021/08/29 04:56:29;;;;;;;3.90;1.50;;;;;22.10;101929.00;;;;5010847;28;20193;-77
2021/08/29 04:58:57;;;;;;;3.22;1.33;;;;;22.10;101930.00;;;;5011097;28;20208;-76
2021/08/29 05:01:26;;;;;;;4.88;1.55;;;;;22.10;101933.00;;;;5009357;28;20200;-76
2021/08/29 05:03:54;;;;;;;2.20;1.10;;;;;22.10;101936.00;;;;5010411;28;20205;-76
2021/08/29 05:06:21;;;;;;;4.25;1.50;;;;;22.10;101937.00;;;;5011331;28;20284;-76
2021/08/29 05:08:49;;;;;;;3.00;1.30;;;;;22.10;101940.00;;;;5011347;28;20279;-77
2021/08/29 05:11:16;;;;;;;4.20;1.40;;;;;22.10;101935.00;;;;5011231;28;20212;-77
2021/08/29 05:13:44;;;;;;;3.45;1.17;;;;;22.10;101934.00;;;;5010657;28;20193;-77
2021/08/29 05:16:12;;;;;;;4.63;1.17;;;;;22.10;101928.00;;;;5009663;28;20212;-76
2021/08/29 05:18:39;;;;;;;3.92;1.52;;;;;22.10;101938.00;;;;5010303;28;20236;-76
2021/08/29 05:21:06;;;;;;;2.22;1.25;;;;;22.10;101940.00;;;;5009464;28;20205;-77
2021/08/29 05:23:33;;;;;;;4.93;1.58;;;;;22.10;101943.00;;;;5010478;28;20189;-76
2021/08/29 05:26:01;;;;;;;3.35;1.80;;;;;22.10;101939.00;;;;5010617;28;20201;-77
2021/08/29 05:28:28;;;;;;;4.85;1.45;;;;;22.10;101939.00;;;;5010297;28;20224;-76
2021/08/29 05:30:57;;;;;;;2.80;1.13;;;;;22.10;101937.00;;;;5010541;28;20208;-76
2021/08/29 05:33:24;;;;;;;6.63;1.65;;;;;22.10;101934.00;;;;5010437;28;20658;-77
2021/08/29 05:35:51;;;;;;;2.33;1.20;;;;;22.10;101931.00;;;;5009307;28;20216;-76
2021/08/29 05:38:18;;;;;;;2.75;0.90;;;;;22.10;101942.00;;;;5010007;28;20344;-77
2021/08/29 05:40:46;;;;;;;3.45;1.33;;;;;22.10;101941.00;;;;5009357;28;20689;-76
2021/08/29 05:43:13;;;;;;;3.13;1.17;;;;;22.10;101944.00;;;;5011269;28;20201;-76
2021/08/29 05:45:40;;;;;;;3.85;1.45;;;;;22.10;101947.00;;;;5008757;28;20546;-77
2021/08/29 05:48:09;;;;;;;4.38;1.20;;;;;22.10;101950.00;;;;5010528;28;20193;-76
2021/08/29 05:50:36;;;;;;;5.47;1.10;;;;;22.20;101943.00;;;;5010841;28;20197;-76
2021/08/29 05:53:03;;;;;;;5.38;1.35;;;;;22.20;101936.00;;;;5009882;28;20197;-77
2021/08/29 05:55:31;;;;;;;5.28;1.13;;;;;22.20;101942.00;;;;5010334;28;20209;-76
2021/08/29 05:57:58;;;;;;;2.25;1.15;;;;;22.20;101940.00;;;;5010435;28;20193;-76
2021/08/29 06:00:25;;;;;;;4.82;1.25;;;;;22.20;101941.00;;;;5008918;28;20201;-76
2021/08/29 06:02:52;;;;;;;5.90;0.95;;;;;22.20;101938.00;;;;5009773;28;20197;-76
2021/08/29 06:05:21;;;;;;;3.65;1.20;;;;;22.20;101945.00;;;;5010372;28;20223;-76
2021/08/29 06:07:48;;;;;;;2.70;1.00;;;;;22.20;101937.00;;;;5000365;28;20208;-76
2021/08/29 06:10:16;;;;;;;2.33;1.05;;;;;22.20;101934.00;;;;5010277;28;20228;-76
2021/08/29 06:12:45;;;;;;;3.05;1.33;;;;;22.30;101933.00;;;;5007055;28;20201;-76
2021/08/29 06:15:12;;;;;;;5.18;1.20;;;;;22.30;101931.00;;;;5009415;28;20239;-76
2021/08/29 06:17:41;;;;;;;6.50;1.65;;;;;22.30;101938.00;;;;5000952;28;20240;-77
2021/08/29 06:20:09;;;;;;;2.70;1.10;;;;;22.30;101934.00;;;;5009578;28;20212;-76
2021/08/29 06:22:37;;;;;;;3.58;1.40;;;;;22.30;101942.00;;;;5006984;28;20212;-76
2021/08/29 06:25:07;;;;;;;2.67;1.17;;;;;22.30;101942.00;;;;5008703;28;20200;-77
2021/08/29 06:27:34;;;;;;;6.38;1.65;;;;;22.30;101940.00;;;;5008518;28;20231;-76
2021/08/29 06:30:02;;;;;;;4.00;1.42;;;;;22.30;101935.00;;;;5009156;28;20216;-76
2021/08/29 06:32:29;;;;;;;3.00;1.60;;;;;22.30;101942.00;;;;5009810;28;20200;-77
2021/08/29 06:34:56;;;;;;;5.25;1.52;;;;;22.30;101938.00;;;;5009681;28;20288;-76
2021/08/29 06:37:23;;;;;;;2.72;0.77;;;;;22.30;101936.00;;;;5009063;28;20201;-76
2021/08/29 06:39:52;;;;;;;2.45;1.02;;;;;22.30;101936.00;;;;5008878;28;20204;-76
2021/08/29 06:42:19;;;;;;;3.08;1.33;;;;;22.30;101941.00;;;;5009502;28;20280;-76
2021/08/29 06:44:46;;;;;;;2.63;0.90;;;;;22.30;101937.00;;;;5008472;28;20200;-77
2021/08/29 06:47:14;;;;;;;2.35;1.15;;;;;22.30;101932.00;;;;5008256;28;20222;-76
2021/08/29 06:49:41;;;;;;;4.68;1.60;;;;;22.30;101922.00;;;;5008573;28;20225;-76
2021/08/29 06:52:08;;;;;;;4.13;1.27;;;;;22.30;101923.00;;;;5007503;28;20573;-77
2021/08/29 06:54:37;;;;;;;4.57;1.20;;;;;22.30;101925.00;;;;5008729;28;20201;-77
2021/08/29 06:57:06;;;;;;;2.65;1.27;;;;;22.20;101918.00;;;;5008041;28;20662;-76
2021/08/29 06:59:34;;;;;;;5.90;1.15;;;;;22.30;101909.00;;;;5008437;28;20699;-77
2021/08/29 07:02:01;;;;;;;3.85;1.60;;;;;22.30;101910.00;;;;5007934;28;20205;-77
2021/08/29 07:04:28;;;;;;;4.20;1.00;;;;;22.30;101913.00;;;;5008090;28;20208;-77
2021/08/29 07:06:55;;;;;;;4.78;1.20;;;;;22.30;101912.00;;;;5008606;28;20701;-76
2021/08/29 07:09:23;;;;;;;3.45;1.50;;;;;22.30;101904.00;;;;5008665;28;20221;-77
2021/08/29 07:11:50;;;;;;;2.78;0.93;;;;;22.30;101899.00;;;;5007911;28;20204;-77
2021/08/29 07:14:18;;;;;;;4.72;1.38;;;;;22.30;101894.00;;;;5008302;28;20566;-77
2021/08/29 07:16:46;;;;;;;4.38;1.52;;;;;22.30;101894.00;;;;5007177;28;20217;-77
2021/08/29 07:19:13;;;;;;;4.97;1.20;;;;;22.30;101897.00;;;;5009062;28;20674;-76
2021/08/29 07:21:40;;;;;;;4.65;1.38;;;;;22.30;101896.00;;;;5000296;28;20189;-77
2021/08/29 07:24:07;;;;;;;3.17;1.15;;;;;22.30;101903.00;;;;5009297;28;20208;-77
2021/08/29 07:26:35;;;;;;;3.35;1.13;;;;;22.30;101899.00;;;;5007801;28;20209;-77
2021/08/29 07:29:02;;;;;;;4.53;1.40;;;;;22.40;101902.00;;;;5008732;28;20590;-76
2021/08/29 07:31:31;;;;;;;3.78;1.00;;;;;22.40;101913.00;;;;5009088;28;20196;-76
2021/08/29 07:33:58;;;;;;;5.72;1.20;;;;;22.40;101912.00;;;;5009228;28;20212;-76
2021/08/29 07:36:25;;;;;;;2.78;1.13;;;;;22.40;101911.00;;;;5008529;28;20201;-76
2021/08/29 07:38:53;;;;;;;4.20;1.38;;;;;22.40;101915.00;;;;5008268;28;20193;-77
2021/08/29 07:41:20;;;;;;;4.85;1.38;;;;;22.40;101911.00;;;;5006611;28;20670;-77
2021/08/29 07:43:47;;;;;;;4.10;1.25;;;;;22.40;101912.00;;;;4999217;28;20193;-78
2021/08/29 07:46:15;;;;;;;2.38;1.08;;;;;22.40;101903.00;;;;5005588;28;20193;-76
2021/08/29 07:48:43;;;;;;;5.00;1.85;;;;;22.40;101907.00;;;;5007537;28;20208;-77
2021/08/29 07:51:11;;;;;;;2.65;1.10;;;;;22.40;101905.00;;;;5008588;28;20209;-78
2021/08/29 07:53:39;;;;;;;4.22;1.38;;;;;22.40;101905.00;;;;5008325;28;20211;-76
2021/08/29 07:56:06;;;;;;;5.25;1.50;;;;;22.40;101912.00;;;;5007991;28;20272;-79
2021/08/29 07:58:33;;;;;;;5.32;1.40;;;;;22.40;101897.00;;;;5010538;28;20201;-78
2021/08/29 08:01:01;;;;;;;6.38;1.80;;;;;22.40;101909.00;;;;5011596;28;20203;-77
2021/08/29 08:03:28;;;;;;;5.65;1.73;;;;;22.50;101915.00;;;;5011292;28;20201;-77
2021/08/29 08:05:57;;;;;;;4.07;1.35;;;;;22.40;101916.00;;;;5012009;28;20276;-76
2021/08/29 08:08:24;;;;;;;7.10;1.27;;;;;22.50;101915.00;;;;5011640;28;20212;-77
2021/08/29 08:10:51;;;;;;;2.55;1.17;;;;;22.50;101919.00;;;;5011592;28;20224;-77
2021/08/29 08:13:18;;;;;;;5.72;1.42;;;;;22.50;101918.00;;;;5012283;28;20208;-77
2021/08/29 08:15:46;;;;;;;2.63;1.08;;;;;22.50;101920.00;;;;5010192;28;20201;-76
2021/08/29 08:18:13;;;;;;;4.25;1.33;;;;;22.50;101911.00;;;;5011077;28;20232;-77
2021/08/29 08:20:40;;;;;;;2.90;1.20;;;;;22.50;101914.00;;;;5010882;28;20193;-77
2021/08/29 08:23:09;;;;;;;4.22;1.02;;;;;22.50;101909.00;;;;5012422;28;20205;-76
2021/08/29 08:25:36;;;;;;;5.75;1.65;;;;;22.60;101911.00;;;;5009770;28;20264;-76
2021/08/29 08:28:03;;;;;;;9.65;1.90;;;;;22.60;101912.00;;;;5012033;28;20204;-76
2021/08/29 08:30:31;;;;;;;4.82;1.95;;;;;22.60;101908.00;;;;5011055;28;20224;-76
2021/08/29 08:32:58;;;;;;;2.72;1.00;;;;;22.60;101904.00;;;;5010454;28;20296;-76
2021/08/29 08:35:25;;;;;;;2.85;1.00;;;;;22.60;101910.00;;;;5010936;28;20209;-76
2021/08/29 08:37:53;;;;;;;5.75;1.48;;;;;22.60;101905.00;;;;5011635;28;20592;-76
2021/08/29 08:40:22;;;;;;;3.33;1.13;;;;;22.60;101908.00;;;;5005866;28;20213;-78
2021/08/29 08:42:51;;;;;;;6.13;1.20;;;;;22.70;101905.00;;;;5003838;28;20237;-78
2021/08/29 08:45:19;;;;;;;4.53;1.00;;;;;22.70;101911.00;;;;5007042;28;20214;-78
2021/08/29 08:47:47;;;;;;;6.65;1.48;;;;;22.70;101913.00;;;;5005789;28;20341;-77
2021/08/29 08:50:15;;;;;;;7.95;1.60;;;;;22.70;101913.00;;;;5006455;28;20233;-77
2021/08/29 08:52:43;;;;;;;5.22;1.50;;;;;22.70;101914.00;;;;5006597;28;21069;-77
2021/08/29 08:55:12;;;;;;;3.75;1.50;;;;;22.70;101914.00;;;;5004917;28;21243;-77
2021/08/29 08:57:42;;;;;;;5.72;1.50;;;;;22.60;101911.00;;;;5002320;28;20197;-77
2021/08/29 09:00:09;;;;;;;6.18;1.50;;;;;22.60;101916.00;;;;5010478;28;20212;-77
2021/08/29 09:02:37;;;;;;;2.95;1.30;;;;;22.60;101915.00;;;;5005978;28;20205;-78
2021/08/29 09:05:05;;;;;;;6.82;1.25;;;;;22.60;101914.00;;;;5010024;28;20205;-76
2021/08/29 09:07:32;;;;;;;5.68;1.65;;;;;22.60;101917.00;;;;5008822;28;20209;-75
2021/08/29 09:09:59;;;;;;;3.35;1.27;;;;;22.60;101917.00;;;;5004475;28;20217;-76
2021/08/29 09:12:27;;;;;;;6.13;1.10;;;;;22.60;101908.00;;;;5006820;28;20658;-78
2021/08/29 09:14:57;;;;;;;4.82;1.15;;;;;22.60;101912.00;;;;5009800;28;20201;-77
2021/08/29 09:17:27;;;;;;;6.32;1.45;;;;;22.60;101902.00;;;;5010395;28;20237;-78
2021/08/29 09:20:18;;;;;;;3.55;1.20;;;;;22.50;101906.00;;;;5007245;28;20686;-79
2021/08/29 09:22:47;;;;;;;4.10;1.33;;;;;22.60;101902.00;;;;5005630;28;20213;-79
2021/08/29 09:25:16;;;;;;;4.07;1.10;;;;;22.50;101899.00;;;;5004271;28;20197;-78
2021/08/29 09:27:45;;;;;;;4.80;1.42;;;;;22.50;101900.00;;;;5006020;28;20220;-78
2021/08/29 09:30:15;;;;;;;7.32;1.02;;;;;22.50;101901.00;;;;5009345;28;20220;-78
2021/08/29 09:32:55;;;;;;;5.40;1.40;;;;;22.50;101903.00;;;;5007603;28;20855;-79
2021/08/29 09:35:26;;;;;;;5.35;1.27;;;;;22.50;101894.00;;;;5008643;28;20204;-79
2021/08/29 09:37:54;;;;;;;5.80;1.13;;;;;22.60;101887.00;;;;5009761;28;20201;-77
2021/08/29 09:40:24;;;;;;;4.65;1.65;;;;;22.50;101888.00;;;;5010497;28;20212;-77
2021/08/29 09:42:53;;;;;;;4.93;0.90;;;;;22.60;101893.00;;;;5010151;28;20245;-77
2021/08/29 09:45:26;;;;;;;5.90;1.85;;;;;22.60;101895.00;;;;5008989;28;20197;-77
2021/08/29 09:47:58;;;;;;;5.40;1.15;;;;;22.60;101891.00;;;;5009213;28;20220;-76
2021/08/29 09:50:26;;;;;;;2.78;1.48;;;;;22.60;101890.00;;;;5009368;28;20315;-78
2021/08/29 09:53:07;;;;;;;5.53;2.03;;;;;22.60;101889.00;;;;5010533;28;20205;-77
2021/08/29 09:55:36;;;;;;;3.92;1.30;;;;;22.70;101888.00;;;;5008950;28;20207;-76
2021/08/29 09:58:21;;;;;;;3.60;1.00;;;;;22.60;101893.00;;;;5008523;28;20201;-77
2021/08/29 10:01:11;;;;;;;4.38;1.42;;;;;22.60;101884.00;;;;5009329;28;20211;-77
2021/08/29 10:03:39;;;;;;;5.93;1.73;;;;;22.80;101881.00;;;;5007055;28;20227;-77
2021/08/29 10:06:21;;;;;;;4.40;1.52;;;;;22.70;101877.00;;;;5008992;28;20204;-78
2021/08/29 10:08:50;;;;;;;3.38;1.45;;;;;22.80;101874.00;;;;5008826;28;20204;-79
2021/08/29 10:11:18;;;;;;;5.75;1.40;;;;;22.80;101874.00;;;;5009336;28;20224;-76
2021/08/29 10:13:46;;;;;;;6.80;1.45;;;;;22.80;101883.00;;;;5009171;28;20219;-76
2021/08/29 10:16:16;;;;;;;5.35;1.42;;;;;22.80;101878.00;;;;5008839;28;20213;-76
2021/08/29 10:18:47;;;;;;;6.68;1.30;;;;;22.80;101874.00;;;;5002909;28;20228;-78
2021/08/29 10:21:16;;;;;;;4.70;1.13;;;;;22.80;101872.00;;;;5008486;28;20197;-76
2021/08/29 10:23:45;;;;;;;4.95;1.52;;;;;22.70;101878.00;;;;5008476;28;20199;-77
2021/08/29 10:26:15;;;;;;;2.40;0.98;;;;;22.70;101876.00;;;;5007715;28;20212;-79
2021/08/29 10:28:45;;;;;;;2.92;1.48;;;;;22.70;101875.00;;;;5008043;28;20203;-77
2021/08/29 10:31:18;;;;;;;5.20;0.98;;;;;22.70;101876.00;;;;5007833;28;20602;-77
2021/08/29 10:33:48;;;;;;;4.82;1.20;;;;;22.70;101879.00;;;;5006774;28;20212;-76
2021/08/29 10:36:17;;;;;;;4.10;1.80;;;;;22.70;101878.00;;;;5008692;28;20228;-77
2021/08/29 10:38:44;;;;;;;6.18;1.33;;;;;22.70;101878.00;;;;5007768;28;20678;-76
2021/08/29 10:41:19;;;;;;;3.30;0.90;;;;;22.60;101878.00;;;;5006162;28;20232;-79
2021/08/29 10:43:46;;;;;;;2.65;1.13;;;;;22.70;101873.00;;;;5008214;28;20204;-78
2021/08/29 10:46:16;;;;;;;4.38;1.65;;;;;22.60;101864.00;;;;5008710;28;20207;-77
2021/08/29 10:48:46;;;;;;;4.78;1.20;;;;;22.60;101869.00;;;;5008391;28;20205;-77
2021/08/29 10:51:16;;;;;;;6.72;1.38;;;;;22.60;101861.00;;;;5008717;28;20228;-76
2021/08/29 10:53:49;;;;;;;4.72;0.93;;;;;22.60;101858.00;;;;5007888;28;20408;-77
2021/08/29 10:56:34;;;;;;;2.78;1.00;;;;;22.50;101865.00;;;;5008920;28;20205;-75
2021/08/29 10:59:27;;;;;;;3.88;1.30;;;;;22.50;101861.00;;;;5008160;28;20301;-77
2021/08/29 11:02:11;;;;;;;5.60;1.70;;;;;22.50;101861.00;;;;5008190;28;20211;-78
2021/08/29 11:04:51;;;;;;;3.20;1.35;;;;;22.50;101862.00;;;;5006218;28;20741;-78
2021/08/29 11:07:39;;;;;;;5.32;1.85;;;;;22.50;101856.00;;;;5001740;28;20216;-78
2021/08/29 11:10:07;;;;;;;5.25;1.20;;;;;22.60;101852.00;;;;5004474;28;20255;-79
2021/08/29 11:12:37;;;;;;;3.75;1.35;;;;;22.70;101855.00;;;;5001032;28;20200;-79
2021/08/29 11:15:06;;;;;;;4.57;1.15;;;;;22.70;101863.00;;;;5001733;28;20197;-82
2021/08/29 11:17:36;;;;;;;2.67;1.08;;;;;22.60;101852.00;;;;5001249;28;20245;-81
2021/08/29 11:20:13;;;;;;;5.15;2.22;;;;;22.60;101852.00;;;;5001982;28;20244;-82
2021/08/29 11:22:41;;;;;;;4.35;1.23;;;;;22.70;101856.00;;;;5001446;28;20196;-81
2021/08/29 11:25:20;;;;;;;2.35;0.85;;;;;22.60;101851.00;;;;5000723;28;20683;-79
2021/08/29 11:28:04;;;;;;;3.85;1.00;;;;;22.60;101849.00;;;;5002431;28;20197;-78
2021/08/29 11:30:45;;;;;;;6.50;1.45;;;;;22.60;101843.00;;;;4998256;28;20941;-78
2021/08/29 11:33:23;;;;;;;4.88;1.27;;;;;22.70;101848.00;;;;5002959;28;20189;-77
2021/08/29 11:35:53;;;;;;;7.00;1.10;;;;;22.70;101839.00;;;;5004000;28;20289;-79
2021/08/29 11:38:32;;;;;;;2.75;0.98;;;;;22.70;101839.00;;;;4999476;28;20197;-78
2021/08/29 11:41:01;;;;;;;3.22;1.23;;;;;22.70;101838.00;;;;5004416;28;20224;-78
2021/08/29 11:43:35;;;;;;;4.00;1.58;;;;;22.70;101839.00;;;;5005163;28;20293;-78
2021/08/29 11:46:09;;;;;;;3.63;1.83;;;;;22.70;101836.00;;;;5010342;28;20200;-78
2021/08/29 11:48:38;;;;;;;2.28;1.52;;;;;22.70;101843.00;;;;5006479;28;20438;-75
2021/08/29 11:51:05;;;;;;;4.05;1.27;;;;;22.80;101839.00;;;;5011406;28;20228;-76
2021/08/29 11:53:49;;;;;;;5.28;1.50;;;;;22.70;101834.00;;;;5010508;28;20671;-76
2021/08/29 11:56:18;;;;;;;3.42;1.35;;;;;22.80;101836.00;;;;5003927;28;20633;-76
2021/08/29 11:58:47;;;;;;;3.55;1.23;;;;;22.80;101834.00;;;;5010577;28;20232;-77
2021/08/29 12:01:15;;;;;;;6.28;1.75;;;;;22.80;101833.00;;;;5010883;28;20196;-77
2021/08/29 12:03:44;;;;;;;2.75;1.17;;;;;22.80;101835.00;;;;5011633;28;20216;-77
2021/08/29 12:06:22;;;;;;;3.53;1.33;;;;;22.70;101838.00;;;;5011402;28;20208;-77
2021/08/29 12:09:13;;;;;;;6.70;1.40;;;;;22.70;101837.00;;;;5003551;28;20208;-78
2021/08/29 12:11:42;;;;;;;2.70;1.10;;;;;22.70;101840.00;;;;5010717;28;20225;-77
2021/08/29 12:14:17;;;;;;;1.85;1.10;;;;;22.70;101841.00;;;;5011554;28;20201;-78
2021/08/29 12:16:52;;;;;;;3.13;1.45;;;;;22.70;101842.00;;;;4993993;28;20710;-77
2021/08/29 12:19:25;;;;;;;3.47;1.08;;;;;22.70;101841.00;;;;5010435;28;20213;-77